Terminal Aerodrome Forecast
Issued by NWS Twin Cities, MN

Home | Current Version | Previous Version | Graphics & Text | Print | Product List | Glossary On
Versions: 1 2 3 4 5 6 7 8 9 10 11 12 13 14 15 16 17
000
FTUS43 KMPX 190904 AAA
TAFEAU
TAF AMD
KEAU 190904Z 1909/2006 09005KT P6SM SCT025 OVC040
     FM191000 10004KT P6SM OVC025
     FM191500 13008KT P6SM SCT025 BKN050
     FM191900 14012KT P6SM SCT050=

USA.gov is the U.S. government's official web portal to all federal, state and local government web resources and services.